createdAt,value
2018-07-23T00:01:15.136Z,23.39
2018-07-23T00:03:43.494Z,23.46
2018-07-23T00:06:11.882Z,23.43
2018-07-23T00:08:40.163Z,23.37
2018-07-23T00:11:08.481Z,23.23
2018-07-23T00:13:36.744Z,23.26
2018-07-23T00:16:05.104Z,23.18
2018-07-23T00:18:33.301Z,23.21
2018-07-23T00:21:01.747Z,23.21
2018-07-23T00:23:30.049Z,23.23
2018-07-23T00:25:58.335Z,23.21
2018-07-23T00:28:26.670Z,23.12
2018-07-23T00:30:54.969Z,23.15
2018-07-23T00:33:23.281Z,23.13
2018-07-23T00:35:51.611Z,23.19
2018-07-23T00:38:19.938Z,23.12
2018-07-23T00:40:48.236Z,23.23
2018-07-23T00:43:16.611Z,23.25
2018-07-23T00:45:45.006Z,23.31
2018-07-23T00:48:13.279Z,23.31
2018-07-23T00:50:41.537Z,23.42
2018-07-23T00:53:09.797Z,23.30
2018-07-23T00:55:38.036Z,23.22
2018-07-23T00:58:06.345Z,23.20
2018-07-23T01:00:34.564Z,23.17
2018-07-23T01:03:05.671Z,23.28
2018-07-23T01:05:34.723Z,23.29
2018-07-23T01:08:03.124Z,23.39
2018-07-23T01:10:31.482Z,23.23
2018-07-23T01:12:59.710Z,23.34
2018-07-23T01:15:28.110Z,23.22
2018-07-23T01:17:56.367Z,23.11
2018-07-23T01:20:24.743Z,22.98
2018-07-23T01:22:53.082Z,23.08
2018-07-23T01:25:21.313Z,23.11
2018-07-23T01:27:49.710Z,23.08
2018-07-23T01:30:18.007Z,23.11
2018-07-23T01:32:46.327Z,23.04
2018-07-23T01:35:14.687Z,23.09
2018-07-23T01:37:42.992Z,22.82
2018-07-23T01:40:11.309Z,22.78
2018-07-23T01:42:39.626Z,22.87
2018-07-23T01:45:08.013Z,22.97
2018-07-23T01:47:36.290Z,22.95
2018-07-23T01:50:04.660Z,22.96
2018-07-23T01:52:32.947Z,22.94
2018-07-23T01:55:01.533Z,22.80
2018-07-23T01:57:29.804Z,22.98
2018-07-23T01:59:58.197Z,22.68
2018-07-23T02:02:26.600Z,22.92
2018-07-23T02:04:54.934Z,22.79
2018-07-23T02:07:23.256Z,22.93
2018-07-23T02:09:51.554Z,22.88
2018-07-23T02:12:19.974Z,22.90
2018-07-23T02:14:48.259Z,22.65
2018-07-23T02:17:16.584Z,22.65
2018-07-23T02:19:44.897Z,22.47
2018-07-23T02:22:13.379Z,22.57
2018-07-23T02:24:41.679Z,22.49
2018-07-23T02:27:09.954Z,22.67
2018-07-23T02:29:38.299Z,22.77
2018-07-23T02:32:06.564Z,22.51
2018-07-23T02:34:34.930Z,22.43
2018-07-23T02:37:03.205Z,22.53
2018-07-23T02:39:31.538Z,22.67
2018-07-23T02:41:59.797Z,22.74
2018-07-23T02:44:28.490Z,22.81
2018-07-23T02:46:57.082Z,22.92
2018-07-23T02:49:25.333Z,23.11
2018-07-23T02:51:53.625Z,23.10
2018-07-23T02:54:22.218Z,23.22
2018-07-23T02:56:50.604Z,23.19
2018-07-23T02:59:18.898Z,23.20
2018-07-23T03:01:47.175Z,23.20
2018-07-23T03:04:15.655Z,23.23
2018-07-23T03:06:43.977Z,23.32
2018-07-23T03:09:12.282Z,23.03
2018-07-23T03:11:40.587Z,23.08
2018-07-23T03:14:08.945Z,23.08
2018-07-23T03:16:38.684Z,23.14
2018-07-23T03:19:06.937Z,23.14
2018-07-23T03:21:35.249Z,23.06
2018-07-23T03:24:03.598Z,23.03
2018-07-23T03:26:31.887Z,23.20
2018-07-23T03:29:00.223Z,23.21
2018-07-23T03:31:28.549Z,23.12
2018-07-23T03:33:58.004Z,23.22
2018-07-23T03:36:26.374Z,23.21
2018-07-23T03:38:54.657Z,23.11
2018-07-23T03:41:23.037Z,23.26
2018-07-23T03:43:51.333Z,23.32
2018-07-23T03:46:19.604Z,23.24
2018-07-23T03:48:47.966Z,23.39
2018-07-23T03:51:16.321Z,23.32
2018-07-23T03:53:44.671Z,23.08
2018-07-23T03:56:12.918Z,23.14
2018-07-23T03:58:41.347Z,23.35
2018-07-23T04:01:09.647Z,23.30
2018-07-23T04:03:38.224Z,23.28
2018-07-23T04:06:06.849Z,23.25
2018-07-23T04:08:35.063Z,23.56
2018-07-23T04:11:03.429Z,23.70
2018-07-23T04:13:31.961Z,23.86
2018-07-23T04:16:00.363Z,23.83
2018-07-23T04:18:28.657Z,23.85
2018-07-23T04:20:56.981Z,23.86
2018-07-23T04:23:25.253Z,23.93
2018-07-23T04:25:53.531Z,23.80
2018-07-23T04:28:22.010Z,23.64
2018-07-23T04:30:50.302Z,23.99
2018-07-23T04:33:18.658Z,24.11
2018-07-23T04:35:46.939Z,24.43
2018-07-23T04:38:15.237Z,24.34
2018-07-23T04:40:44.198Z,24.34
2018-07-23T04:43:12.491Z,24.61
2018-07-23T04:45:40.758Z,24.90
2018-07-23T04:48:09.127Z,25.04
2018-07-23T04:50:37.501Z,24.92
2018-07-23T04:53:06.890Z,24.78
2018-07-23T04:55:35.151Z,25.33
2018-07-23T04:58:03.511Z,25.43
2018-07-23T05:00:31.811Z,25.61
2018-07-23T05:03:00.470Z,26.02
2018-07-23T05:05:28.723Z,26.48
2018-07-23T05:07:58.654Z,26.85
2018-07-23T05:10:26.974Z,27.03
2018-07-23T05:12:55.356Z,26.82
2018-07-23T05:15:23.713Z,27.31
2018-07-23T05:17:51.973Z,27.44
2018-07-23T05:20:20.254Z,27.80
2018-07-23T05:22:48.682Z,28.00
2018-07-23T05:25:17.080Z,27.65
2018-07-23T05:27:45.421Z,27.83
2018-07-23T05:30:13.775Z,27.82
2018-07-23T05:32:42.140Z,28.11
2018-07-23T05:35:10.530Z,27.72
2018-07-23T05:37:40.085Z,28.31
2018-07-23T05:40:08.398Z,28.24
2018-07-23T05:42:36.662Z,27.93
2018-07-23T05:45:05.551Z,27.97
2018-07-23T05:47:33.846Z,28.10
2018-07-23T05:50:02.162Z,27.88
2018-07-23T05:52:30.538Z,28.15
2018-07-23T05:54:58.833Z,28.33
2018-07-23T05:57:27.113Z,28.41
2018-07-23T05:59:55.417Z,28.16
2018-07-23T06:02:23.781Z,27.51
2018-07-23T06:04:52.068Z,27.40
2018-07-23T06:07:20.374Z,27.62
2018-07-23T06:09:48.641Z,27.23
2018-07-23T06:12:16.914Z,27.55
2018-07-23T06:14:45.299Z,27.39
2018-07-23T06:17:13.751Z,26.68
2018-07-23T06:19:42.049Z,27.37
2018-07-23T06:22:10.349Z,27.31
2018-07-23T06:24:38.700Z,27.40
2018-07-23T06:27:07.043Z,27.88
2018-07-23T06:29:35.284Z,27.91
2018-07-23T06:32:03.593Z,28.02
2018-07-23T06:34:31.851Z,27.59
2018-07-23T06:37:00.117Z,27.60
2018-07-23T06:39:28.560Z,27.97
2018-07-23T06:41:56.883Z,27.84
2018-07-23T06:44:25.241Z,27.78
2018-07-23T06:46:53.568Z,27.84
2018-07-23T06:49:21.915Z,27.55
2018-07-23T06:51:50.314Z,28.00
2018-07-23T06:54:18.575Z,28.29
2018-07-23T06:56:46.982Z,28.05
2018-07-23T06:59:15.339Z,28.54
2018-07-23T07:01:43.589Z,28.58
2018-07-23T07:04:11.805Z,28.59
2018-07-23T07:06:40.219Z,28.50
2018-07-23T07:09:09.858Z,28.54
2018-07-23T07:11:38.197Z,28.73
2018-07-23T07:14:07.055Z,28.60
2018-07-23T07:16:35.281Z,28.73
2018-07-23T07:19:03.592Z,29.01
2018-07-23T07:21:31.953Z,29.13
2018-07-23T07:24:00.289Z,29.12
2018-07-23T07:26:28.590Z,29.42
2018-07-23T07:28:56.836Z,29.42
2018-07-23T07:31:25.130Z,29.62
2018-07-23T07:33:53.389Z,29.59
2018-07-23T07:36:21.711Z,29.59
2018-07-23T07:38:50.029Z,29.41
2018-07-23T07:41:18.410Z,29.48
2018-07-23T07:43:46.683Z,30.14
2018-07-23T07:46:14.992Z,30.09
2018-07-23T07:48:43.260Z,30.40
2018-07-23T07:51:11.652Z,29.98
2018-07-23T07:53:39.955Z,30.21
2018-07-23T07:56:08.314Z,30.45
2018-07-23T07:58:36.574Z,30.84
2018-07-23T08:01:04.945Z,30.66
2018-07-23T08:03:33.291Z,31.13
2018-07-23T08:06:01.568Z,30.85
2018-07-23T08:08:30.851Z,31.54
2018-07-23T08:10:59.143Z,31.09
2018-07-23T08:13:27.555Z,31.84
2018-07-23T08:15:55.844Z,31.98
2018-07-23T08:18:24.130Z,32.25
2018-07-23T08:20:52.447Z,31.93
2018-07-23T08:23:20.761Z,32.03
2018-07-23T08:25:49.000Z,32.05
2018-07-23T08:28:17.267Z,31.94
2018-07-23T08:30:45.556Z,32.10
2018-07-23T08:33:13.826Z,31.84
2018-07-23T08:35:42.136Z,31.48
2018-07-23T08:38:10.420Z,31.54
2018-07-23T08:40:38.671Z,31.16
2018-07-23T08:43:07.203Z,30.88
2018-07-23T08:45:35.470Z,31.35
2018-07-23T08:48:03.735Z,31.01
2018-07-23T08:50:32.073Z,30.24
2018-07-23T08:53:00.400Z,30.40
2018-07-23T08:55:28.807Z,30.60
2018-07-23T08:57:57.310Z,30.73
2018-07-23T09:00:25.678Z,30.87
2018-07-23T09:02:54.063Z,30.96
2018-07-23T09:05:22.399Z,31.75
2018-07-23T09:07:50.722Z,30.94
2018-07-23T09:10:19.123Z,31.19
2018-07-23T09:12:47.426Z,31.30
2018-07-23T09:15:15.744Z,31.85
2018-07-23T09:17:44.077Z,30.75
2018-07-23T09:20:12.378Z,31.34
2018-07-23T09:22:40.627Z,31.56
2018-07-23T09:25:08.950Z,31.73
2018-07-23T09:27:37.218Z,31.83
2018-07-23T09:30:06.573Z,32.18
2018-07-23T09:32:34.912Z,32.04
2018-07-23T09:35:03.340Z,32.44
2018-07-23T09:37:31.675Z,33.10
2018-07-23T09:39:59.945Z,32.93
2018-07-23T09:42:28.261Z,33.59
2018-07-23T09:44:56.771Z,33.86
2018-07-23T09:47:25.062Z,33.29
2018-07-23T09:49:53.331Z,32.64
2018-07-23T09:52:21.591Z,32.89
2018-07-23T09:54:49.885Z,32.07
2018-07-23T09:57:18.283Z,32.13
2018-07-23T09:59:46.539Z,32.29
2018-07-23T10:02:14.851Z,32.03
2018-07-23T10:04:43.172Z,32.32
2018-07-23T10:07:11.434Z,33.08
2018-07-23T10:09:39.733Z,32.96
2018-07-23T10:12:08.155Z,33.58
2018-07-23T10:14:36.484Z,32.72
2018-07-23T10:17:04.983Z,32.92
2018-07-23T10:19:33.343Z,33.86
2018-07-23T10:22:01.673Z,32.91
2018-07-23T10:24:29.916Z,31.52
2018-07-23T10:26:58.178Z,32.86
2018-07-23T10:29:26.538Z,33.02
2018-07-23T10:31:54.846Z,33.03
2018-07-23T10:34:23.150Z,33.43
2018-07-23T10:36:51.459Z,33.11
2018-07-23T10:39:19.780Z,33.40
2018-07-23T10:41:48.064Z,33.76
2018-07-23T10:44:16.367Z,33.45
2018-07-23T10:46:44.760Z,34.35
2018-07-23T10:49:13.133Z,34.15
2018-07-23T10:51:41.445Z,34.23
2018-07-23T10:54:09.788Z,34.05
2018-07-23T10:56:38.204Z,34.68
2018-07-23T10:59:06.563Z,34.47
2018-07-23T11:01:34.857Z,34.52
2018-07-23T11:04:03.234Z,34.67
2018-07-23T11:06:31.513Z,34.91
2018-07-23T11:08:59.895Z,34.99
2018-07-23T11:11:28.196Z,33.55
2018-07-23T11:13:56.520Z,34.51
2018-07-23T11:16:24.779Z,34.61
2018-07-23T11:18:53.408Z,34.90
2018-07-23T11:21:21.745Z,34.60
2018-07-23T11:23:50.067Z,34.86
2018-07-23T11:26:18.451Z,34.03
2018-07-23T11:28:46.735Z,34.67
2018-07-23T11:31:15.012Z,35.16
2018-07-23T11:33:43.300Z,35.61
2018-07-23T11:36:11.712Z,34.77
2018-07-23T11:38:40.004Z,35.51
2018-07-23T11:41:08.316Z,34.78
2018-07-23T11:43:36.602Z,34.96
2018-07-23T11:46:05.019Z,35.61
2018-07-23T11:48:33.353Z,36.25
2018-07-23T11:51:01.719Z,36.98
2018-07-23T11:53:30.111Z,37.26
2018-07-23T11:55:58.388Z,38.14
2018-07-23T11:58:26.905Z,36.91
2018-07-23T12:00:55.295Z,38.27
2018-07-23T12:03:23.619Z,38.35
2018-07-23T12:05:52.186Z,38.91
2018-07-23T12:08:20.514Z,40.97
2018-07-23T12:10:48.821Z,43.89
2018-07-23T12:13:17.140Z,44.47
2018-07-23T12:15:45.568Z,45.51
2018-07-23T12:18:13.859Z,48.01
2018-07-23T12:20:42.215Z,47.88
2018-07-23T12:23:10.552Z,49.16
2018-07-23T12:25:38.799Z,48.56
2018-07-23T12:28:07.252Z,49.40
2018-07-23T12:30:35.614Z,49.36
2018-07-23T12:33:04.099Z,46.31
2018-07-23T12:35:32.477Z,46.70
2018-07-23T12:38:02.523Z,47.11
2018-07-23T12:40:31.000Z,48.84
2018-07-23T12:42:59.327Z,49.97
2018-07-23T12:45:27.679Z,52.39
2018-07-23T12:47:56.031Z,51.16
2018-07-23T12:50:24.499Z,53.05
2018-07-23T12:52:52.904Z,51.93
2018-07-23T12:55:21.369Z,51.64
2018-07-23T12:57:50.275Z,50.76
2018-07-23T13:00:18.860Z,52.27
2018-07-23T13:02:47.463Z,53.94
2018-07-23T13:05:15.730Z,53.82
2018-07-23T13:07:44.011Z,54.43
2018-07-23T13:10:12.442Z,56.29
2018-07-23T13:12:40.742Z,57.78
2018-07-23T13:15:09.056Z,57.28
2018-07-23T13:17:37.589Z,54.52
2018-07-23T13:20:05.956Z,54.91
2018-07-23T13:22:34.369Z,52.35
2018-07-23T13:25:02.805Z,51.58
2018-07-23T13:27:31.282Z,51.77
2018-07-23T13:29:59.763Z,53.91
2018-07-23T13:32:28.255Z,55.26
2018-07-23T13:34:56.516Z,58.14
2018-07-23T13:37:25.010Z,55.91
2018-07-23T13:39:54.435Z,55.60
2018-07-23T13:42:22.760Z,53.48
2018-07-23T13:44:51.351Z,54.67
2018-07-23T13:47:19.595Z,54.91
2018-07-23T13:49:47.891Z,52.47
2018-07-23T13:52:16.126Z,52.99
2018-07-23T13:54:44.473Z,51.67
2018-07-23T13:57:12.795Z,52.49
2018-07-23T13:59:41.042Z,53.59
2018-07-23T14:02:09.642Z,51.51
2018-07-23T14:04:37.920Z,53.60
2018-07-23T14:07:06.217Z,53.15
2018-07-23T14:09:34.528Z,52.03
2018-07-23T14:12:02.802Z,51.50
2018-07-23T14:14:31.119Z,51.47
2018-07-23T14:16:59.383Z,52.36
2018-07-23T14:19:27.745Z,50.09
2018-07-23T14:21:56.047Z,49.89
2018-07-23T14:24:24.295Z,51.38
2018-07-23T14:26:52.652Z,50.03
2018-07-23T14:29:21.055Z,50.86
2018-07-23T14:31:49.667Z,51.35
2018-07-23T14:34:18.587Z,53.24
2018-07-23T14:36:46.894Z,52.58
2018-07-23T14:39:15.192Z,53.09
2018-07-23T14:41:43.617Z,51.95
2018-07-23T14:44:11.967Z,50.88
2018-07-23T14:46:40.594Z,49.76
2018-07-23T14:49:09.085Z,49.28
2018-07-23T14:51:37.924Z,48.94
2018-07-23T14:54:06.540Z,49.34
2018-07-23T14:56:35.166Z,50.47
2018-07-23T14:59:03.647Z,51.53
2018-07-23T15:01:32.451Z,52.09
2018-07-23T15:04:01.055Z,51.75
2018-07-23T15:06:29.488Z,48.90
2018-07-23T15:08:57.883Z,48.78
2018-07-23T15:11:26.159Z,47.51
2018-07-23T15:13:54.538Z,49.40
2018-07-23T15:16:23.028Z,50.80
2018-07-23T15:18:51.334Z,51.24
2018-07-23T15:21:19.728Z,51.41
2018-07-23T15:23:48.265Z,50.45
2018-07-23T15:26:16.662Z,50.97
2018-07-23T15:28:44.920Z,51.21
2018-07-23T15:31:13.292Z,50.53
2018-07-23T15:33:41.540Z,51.76
2018-07-23T15:36:10.045Z,52.74
2018-07-23T15:38:38.467Z,53.24
2018-07-23T15:41:06.665Z,52.58
2018-07-23T15:43:34.924Z,51.50
2018-07-23T15:46:03.269Z,52.30
2018-07-23T15:48:31.653Z,51.08
2018-07-23T15:51:00.139Z,51.24
2018-07-23T15:53:28.504Z,51.80
2018-07-23T15:55:56.864Z,51.86
2018-07-23T15:58:25.290Z,50.84
2018-07-23T16:00:53.704Z,51.47
2018-07-23T16:03:22.073Z,52.55
2018-07-23T16:05:50.485Z,52.77
2018-07-23T16:08:18.757Z,52.29
2018-07-23T16:10:47.134Z,53.16
2018-07-23T16:13:15.638Z,52.48
2018-07-23T16:15:43.924Z,52.35
2018-07-23T16:18:12.290Z,48.73
2018-07-23T16:20:40.531Z,46.92
2018-07-23T16:23:08.838Z,48.36
2018-07-23T16:25:37.379Z,49.12
2018-07-23T16:28:05.848Z,47.68
2018-07-23T16:30:34.207Z,48.59
2018-07-23T16:33:02.486Z,48.41
2018-07-23T16:35:30.744Z,47.87
2018-07-23T16:37:58.993Z,47.50
2018-07-23T16:40:27.423Z,46.79
2018-07-23T16:42:55.734Z,48.29
2018-07-23T16:45:24.170Z,48.38
2018-07-23T16:47:52.430Z,47.72
2018-07-23T16:50:20.776Z,47.35
2018-07-23T16:52:49.074Z,48.21
2018-07-23T16:55:17.317Z,47.10
2018-07-23T16:57:45.595Z,45.91
2018-07-23T17:00:13.973Z,45.74
2018-07-23T17:02:42.280Z,46.06
2018-07-23T17:05:10.597Z,46.68
2018-07-23T17:07:38.919Z,43.74
2018-07-23T17:10:07.331Z,43.29
2018-07-23T17:12:35.579Z,43.83
2018-07-23T17:15:03.922Z,45.45
2018-07-23T17:17:32.203Z,45.27
2018-07-23T17:20:00.671Z,45.93
2018-07-23T17:22:29.061Z,45.87
2018-07-23T17:24:57.587Z,46.37
2018-07-23T17:27:26.051Z,45.96
2018-07-23T17:29:54.376Z,45.75
2018-07-23T17:32:22.692Z,46.27
2018-07-23T17:34:51.120Z,45.72
2018-07-23T17:37:19.431Z,45.30
2018-07-23T17:39:47.743Z,45.02
2018-07-23T17:42:16.347Z,44.67
2018-07-23T17:44:44.702Z,43.88
2018-07-23T17:47:13.207Z,44.05
2018-07-23T17:49:41.612Z,44.18
2018-07-23T17:52:09.988Z,44.43
2018-07-23T17:54:38.317Z,43.68
2018-07-23T17:57:06.602Z,43.33
2018-07-23T17:59:34.854Z,42.84
2018-07-23T18:02:03.174Z,42.04
2018-07-23T18:04:31.771Z,40.68
2018-07-23T18:07:00.260Z,39.35
2018-07-23T18:09:28.608Z,37.85
2018-07-23T18:11:56.898Z,36.25
2018-07-23T18:14:25.152Z,35.46
2018-07-23T18:16:53.460Z,34.62
2018-07-23T18:19:21.852Z,34.14
2018-07-23T18:21:50.147Z,33.87
2018-07-23T18:24:18.492Z,33.44
2018-07-23T18:26:46.838Z,33.21
2018-07-23T18:29:15.113Z,33.14
2018-07-23T18:31:43.467Z,32.83
2018-07-23T18:34:11.873Z,32.44
2018-07-23T18:36:40.150Z,32.29
2018-07-23T18:39:10.095Z,32.14
2018-07-23T18:41:38.558Z,31.71
2018-07-23T18:44:07.098Z,31.48
2018-07-23T18:46:35.548Z,30.85
2018-07-23T18:49:25.318Z,30.97
2018-07-23T18:51:54.401Z,30.74
2018-07-23T18:54:24.236Z,30.81
2018-07-23T18:56:54.473Z,30.92
2018-07-23T18:59:22.775Z,30.74
2018-07-23T19:01:51.997Z,30.52
2018-07-23T19:04:20.495Z,30.04
2018-07-23T19:06:49.179Z,30.15
2018-07-23T19:09:18.709Z,30.38
2018-07-23T19:11:48.221Z,30.16
2018-07-23T19:14:16.967Z,29.91
2018-07-23T19:16:45.875Z,29.58
2018-07-23T19:19:14.239Z,29.55
2018-07-23T19:21:42.484Z,29.61
2018-07-23T19:24:11.059Z,29.41
2018-07-23T19:26:39.411Z,29.49
2018-07-23T19:29:07.767Z,29.21
2018-07-23T19:31:36.108Z,29.31
2018-07-23T19:34:05.024Z,29.42
2018-07-23T19:36:33.416Z,29.37
2018-07-23T19:39:01.831Z,29.28
2018-07-23T19:41:30.583Z,29.34
2018-07-23T19:43:59.081Z,29.21
2018-07-23T19:46:27.403Z,29.33
2018-07-23T19:48:55.879Z,29.33
2018-07-23T19:51:24.174Z,29.13
2018-07-23T19:53:52.487Z,29.10
2018-07-23T19:56:20.973Z,28.96
2018-07-23T19:58:49.375Z,28.65
2018-07-23T20:01:18.003Z,28.40
2018-07-23T20:03:46.477Z,28.20
2018-07-23T20:06:19.387Z,28.06
2018-07-23T20:08:48.469Z,27.94
2018-07-23T20:11:17.386Z,27.73
2018-07-23T20:13:45.795Z,27.66
2018-07-23T20:16:14.466Z,27.58
2018-07-23T20:18:42.931Z,27.56
2018-07-23T20:21:11.364Z,27.45
2018-07-23T20:23:39.876Z,27.33
2018-07-23T20:26:08.454Z,27.29
2018-07-23T20:28:37.308Z,27.27
2018-07-23T20:31:06.090Z,27.04
2018-07-23T20:33:34.515Z,27.02
2018-07-23T20:36:03.505Z,26.80
2018-07-23T20:38:31.743Z,26.91
2018-07-23T20:41:00.270Z,26.85
2018-07-23T20:43:29.445Z,26.74
2018-07-23T20:45:58.425Z,26.66
2018-07-23T20:48:26.803Z,26.65
2018-07-23T20:50:55.638Z,26.54
2018-07-23T20:53:23.919Z,26.50
2018-07-23T20:55:52.248Z,26.35
2018-07-23T20:58:20.583Z,26.43
2018-07-23T21:00:49.089Z,26.44
2018-07-23T21:03:17.593Z,26.27
2018-07-23T21:05:46.077Z,26.27
2018-07-23T21:08:14.437Z,26.19
2018-07-23T21:10:42.828Z,26.12
2018-07-23T21:13:11.268Z,26.00
2018-07-23T21:15:39.730Z,26.00
2018-07-23T21:18:08.403Z,25.98
2018-07-23T21:20:37.063Z,25.94
2018-07-23T21:23:05.596Z,25.89
2018-07-23T21:25:33.987Z,25.66
2018-07-23T21:28:02.364Z,25.66
2018-07-23T21:30:30.740Z,25.60
2018-07-23T21:32:59.364Z,25.64
2018-07-23T21:35:27.832Z,25.63
2018-07-23T21:37:56.287Z,25.50
2018-07-23T21:40:24.976Z,25.61
2018-07-23T21:42:56.025Z,25.60
2018-07-23T21:45:25.771Z,25.42
2018-07-23T21:47:55.826Z,25.95
2018-07-23T21:50:24.965Z,26.34
2018-07-23T21:52:53.378Z,26.36
2018-07-23T21:55:21.661Z,26.33
2018-07-23T21:57:49.918Z,26.24
2018-07-23T22:00:18.288Z,26.10
2018-07-23T22:02:46.770Z,25.79
2018-07-23T22:05:15.270Z,25.61
2018-07-23T22:07:44.008Z,25.21
2018-07-23T22:10:14.756Z,25.09
2018-07-23T22:12:43.054Z,25.21
2018-07-23T22:15:12.464Z,25.05
2018-07-23T22:17:42.209Z,25.00
2018-07-23T22:20:10.507Z,24.92
2018-07-23T22:22:41.003Z,24.69
2018-07-23T22:25:09.340Z,24.67
2018-07-23T22:27:37.621Z,24.68
2018-07-23T22:30:06.303Z,24.51
2018-07-23T22:32:34.624Z,24.56
2018-07-23T22:35:02.907Z,24.47
2018-07-23T22:37:31.161Z,24.49
2018-07-23T22:39:59.449Z,24.41
2018-07-23T22:42:29.398Z,24.34
2018-07-23T22:44:57.674Z,24.42
2018-07-23T22:47:25.893Z,24.28
2018-07-23T22:49:54.160Z,24.31
2018-07-23T22:52:22.449Z,24.09
2018-07-23T22:54:50.724Z,24.35
2018-07-23T22:57:19.024Z,24.23
2018-07-23T22:59:47.449Z,24.33
2018-07-23T23:02:15.719Z,24.18
2018-07-23T23:04:44.003Z,24.00
2018-07-23T23:07:12.289Z,24.03
2018-07-23T23:09:40.729Z,24.02
2018-07-23T23:12:09.046Z,23.87
2018-07-23T23:14:37.281Z,23.98
2018-07-23T23:17:05.586Z,23.88
2018-07-23T23:19:33.850Z,23.97
2018-07-23T23:22:02.240Z,23.81
2018-07-23T23:24:30.441Z,23.80
2018-07-23T23:26:58.834Z,23.74
2018-07-23T23:29:27.088Z,23.69
2018-07-23T23:31:55.323Z,23.73
2018-07-23T23:34:23.592Z,23.77
2018-07-23T23:36:51.913Z,23.73
2018-07-23T23:39:20.286Z,23.73
2018-07-23T23:41:48.608Z,23.67
2018-07-23T23:44:16.840Z,23.63
2018-07-23T23:46:45.130Z,23.48
2018-07-23T23:49:13.390Z,23.56
2018-07-23T23:51:41.662Z,23.54
2018-07-23T23:54:10.001Z,23.55
2018-07-23T23:56:38.270Z,23.39
2018-07-23T23:59:06.571Z,23.46
